Time;durP1;ratioP1;P1;durP2;ratioP2;P2;SDS_P1;SDS_P2;PMS_P1;PMS_P2;Temp;Humidity;BMP_temperature;BMP_pressure;BME280_temperature;BME280_humidity;BME280_pressure;Samples;Min_cycle;Max_cycle;Signal;HPM_P1;HPM_P2
2023/03/15 00:00:46;;;;;;;4.50;3.20;;;;;;;10.08;27.55;93941.81;5004756;28;20262;-65
2023/03/15 00:03:13;;;;;;;4.87;3.03;;;;;;;10.03;27.45;93933.63;5007690;28;20280;-64
2023/03/15 00:05:43;;;;;;;3.60;3.30;;;;;;;10.13;27.49;93930.75;5000061;28;20229;-65
2023/03/15 00:08:11;;;;;;;4.07;3.15;;;;;;;10.12;27.58;93921.25;5002124;28;20529;-64
2023/03/15 00:10:42;;;;;;;4.35;3.30;;;;;;;10.06;27.88;93922.78;5007348;28;20199;-64
2023/03/15 00:13:08;;;;;;;4.07;3.22;;;;;;;10.03;28.00;93919.69;5004966;28;20254;-65
2023/03/15 00:15:34;;;;;;;4.60;3.10;;;;;;;9.88;27.83;93917.00;4994278;28;20238;-65
2023/03/15 00:18:02;;;;;;;4.47;3.23;;;;;;;9.99;28.25;93923.66;5005757;28;20227;-64
2023/03/15 00:20:31;;;;;;;4.73;3.43;;;;;;;9.94;27.62;93922.38;5000543;28;20223;-65
2023/03/15 00:22:57;;;;;;;6.30;3.70;;;;;;;9.77;28.25;93930.53;5001821;28;20218;-64
2023/03/15 00:25:22;;;;;;;5.03;4.00;;;;;;;9.85;28.63;93927.84;5001119;28;20227;-64
2023/03/15 00:27:47;;;;;;;7.57;5.07;;;;;;;9.86;29.95;93932.09;5000126;28;20227;-64
2023/03/15 00:30:13;;;;;;;10.30;7.20;;;;;;;9.75;31.22;93929.88;5007216;28;20239;-64
2023/03/15 00:32:38;;;;;;;10.07;7.32;;;;;;;9.77;30.67;93927.91;4987043;28;20220;-64
2023/03/15 00:35:04;;;;;;;10.33;7.40;;;;;;;9.75;31.18;93922.00;5004209;28;20201;-63
2023/03/15 00:37:30;;;;;;;8.90;7.33;;;;;;;9.74;31.51;93921.19;5002626;28;20202;-64
2023/03/15 00:39:56;;;;;;;9.07;6.85;;;;;;;9.69;31.70;93910.38;5002289;28;20227;-64
2023/03/15 00:42:26;;;;;;;9.60;6.72;;;;;;;9.77;31.88;93910.31;5000669;28;20273;-64
2023/03/15 00:44:53;;;;;;;11.67;7.03;;;;;;;9.67;31.58;93910.53;4998486;28;20265;-64
2023/03/15 00:47:18;;;;;;;9.43;8.15;;;;;;;9.48;32.87;93919.66;5009195;28;20278;-63
2023/03/15 00:49:45;;;;;;;12.63;9.50;;;;;;;8.88;34.79;93922.06;5003561;28;20197;-64
2023/03/15 00:52:11;;;;;;;17.42;12.43;;;;;;;8.77;35.86;93915.38;5007030;28;20226;-63
2023/03/15 00:54:37;;;;;;;19.88;12.45;;;;;;;8.80;35.98;93912.41;5002605;28;20246;-63
2023/03/15 00:57:02;;;;;;;17.13;12.40;;;;;;;8.96;35.72;93906.31;5004823;28;20226;-65
2023/03/15 00:59:33;;;;;;;17.10;12.57;;;;;;;9.04;35.96;93898.41;5005581;28;20234;-64
2023/03/15 01:02:00;;;;;;;16.50;12.50;;;;;;;9.15;35.43;93898.03;4999509;28;20194;-65
2023/03/15 01:04:26;;;;;;;17.97;12.03;;;;;;;9.07;35.61;93892.00;5002851;28;20599;-64
2023/03/15 01:06:51;;;;;;;16.13;11.53;;;;;;;9.14;36.08;93892.94;4999101;28;20229;-64
2023/03/15 01:09:17;;;;;;;14.97;11.13;;;;;;;8.81;36.62;93880.78;5004339;28;20224;-64
2023/03/15 01:11:42;;;;;;;13.77;11.37;;;;;;;9.03;36.30;93878.41;4992782;28;20223;-65
2023/03/15 01:14:08;;;;;;;18.13;12.07;;;;;;;9.22;35.75;93885.88;5006507;28;20285;-64
2023/03/15 01:16:34;;;;;;;14.03;11.20;;;;;;;9.12;35.86;93879.22;5008019;28;20236;-63
2023/03/15 01:19:00;;;;;;;15.20;11.67;;;;;;;9.11;36.12;93875.75;5005464;28;20258;-64
2023/03/15 01:21:25;;;;;;;13.33;10.80;;;;;;;9.01;36.32;93880.41;5002835;28;20257;-64
2023/03/15 01:23:52;;;;;;;13.37;10.53;;;;;;;9.18;35.94;93870.66;5001410;28;20569;-64
2023/03/15 01:26:17;;;;;;;15.33;10.60;;;;;;;9.04;36.12;93874.81;5003539;28;20234;-64
2023/03/15 01:28:43;;;;;;;14.33;11.57;;;;;;;8.83;36.61;93864.88;5005316;28;20226;-63
2023/03/15 01:31:22;;;;;;;14.87;11.87;;;;;;;8.42;37.53;93864.16;5001037;28;20230;-63
2023/03/15 01:33:48;;;;;;;11.80;10.27;;;;;;;8.60;37.44;93864.78;4999977;28;20234;-64
2023/03/15 01:36:13;;;;;;;15.10;10.98;;;;;;;8.87;36.80;93860.94;5005991;28;20222;-63
2023/03/15 01:38:39;;;;;;;15.00;11.30;;;;;;;8.69;36.86;93863.78;5005204;28;20234;-63
2023/03/15 01:41:05;;;;;;;13.60;10.83;;;;;;;8.65;36.91;93851.19;4997763;28;20219;-63
2023/03/15 01:43:31;;;;;;;11.30;10.10;;;;;;;8.88;36.13;93854.72;4998779;28;20249;-63
2023/03/15 01:46:06;;;;;;;15.07;10.50;;;;;;;8.64;37.19;93849.56;5000977;28;20258;-64
2023/03/15 01:48:37;;;;;;;12.33;9.90;;;;;;;8.90;36.67;93854.53;5006423;28;20222;-64
2023/03/15 01:51:09;;;;;;;13.13;10.53;;;;;;;8.81;36.83;93846.69;5000099;28;20215;-64
2023/03/15 01:53:36;;;;;;;14.60;10.70;;;;;;;8.82;36.96;93837.03;5004760;28;20253;-63
2023/03/15 01:56:04;;;;;;;13.33;10.07;;;;;;;8.97;36.92;93840.56;5005538;28;20195;-63
2023/03/15 01:58:30;;;;;;;11.27;9.67;;;;;;;9.00;36.84;93839.41;5004911;28;20239;-63
2023/03/15 02:00:55;;;;;;;12.47;10.67;;;;;;;8.86;36.92;93842.75;5019281;28;20237;-63
2023/03/15 02:03:27;;;;;;;14.73;10.70;;;;;;;8.87;36.85;93839.16;5006383;28;20341;-63
2023/03/15 02:05:58;;;;;;;12.03;10.70;;;;;;;8.93;36.76;93838.47;5004973;28;20219;-64
2023/03/15 02:08:31;;;;;;;13.77;10.53;;;;;;;9.07;36.87;93829.88;5010483;28;20226;-63
2023/03/15 02:11:00;;;;;;;11.43;10.00;;;;;;;8.91;36.95;93822.91;5025619;28;20261;-63
2023/03/15 02:13:28;;;;;;;12.10;10.40;;;;;;;9.00;37.18;93811.38;5004705;28;20242;-63
2023/03/15 02:15:55;;;;;;;13.57;10.90;;;;;;;9.06;37.11;93815.13;5005289;28;20246;-63
2023/03/15 02:18:21;;;;;;;14.73;10.50;;;;;;;9.10;36.96;93808.56;5006990;28;20225;-64
2023/03/15 02:21:05;;;;;;;13.80;10.97;;;;;;;9.00;37.38;93805.31;5008601;28;20214;-63
2023/03/15 02:23:31;;;;;;;14.50;10.93;;;;;;;8.92;37.80;93802.75;5004551;28;20226;-64
2023/03/15 02:25:56;;;;;;;13.67;10.50;;;;;;;9.01;37.51;93799.94;5000590;28;20195;-64
2023/03/15 02:28:22;;;;;;;12.73;10.23;;;;;;;8.92;37.70;93805.38;5001064;28;20685;-64
2023/03/15 02:30:48;;;;;;;13.47;9.90;;;;;;;9.02;37.47;93795.50;5005601;28;20315;-64
2023/03/15 02:33:27;;;;;;;12.73;10.40;;;;;;;8.90;37.36;93807.34;5005750;28;20250;-64
2023/03/15 02:35:54;;;;;;;13.37;11.17;;;;;;;8.70;38.00;93794.66;5004151;28;20215;-64
2023/03/15 02:38:21;;;;;;;12.47;10.10;;;;;;;8.70;38.00;93797.28;5002196;28;20242;-64
2023/03/15 02:40:47;;;;;;;11.77;10.53;;;;;;;8.55;38.62;93796.34;5004876;28;20195;-64
2023/03/15 02:43:17;;;;;;;12.73;9.57;;;;;;;8.44;38.91;93800.16;5007144;28;20219;-65
2023/03/15 02:45:44;;;;;;;12.03;9.27;;;;;;;8.33;38.44;93803.09;5003425;28;20220;-61
2023/03/15 02:48:11;;;;;;;11.20;9.37;;;;;;;7.60;40.33;93798.78;5003888;28;20278;-61
2023/03/15 02:50:37;;;;;;;12.70;9.37;;;;;;;7.42;41.38;93796.31;5007121;28;20223;-60
2023/03/15 02:53:03;;;;;;;9.53;8.07;;;;;;;7.76;39.10;93793.53;5001324;28;20215;-61
2023/03/15 02:55:31;;;;;;;10.47;7.07;;;;;;;7.22;39.40;93801.03;5006452;28;20191;-61
2023/03/15 02:57:57;;;;;;;8.73;7.63;;;;;;;7.46;38.08;93780.13;5006664;28;20219;-61
2023/03/15 03:00:23;;;;;;;10.70;6.57;;;;;;;7.19;39.31;93785.66;5010538;28;20309;-60
2023/03/15 03:02:48;;;;;;;8.50;6.47;;;;;;;7.46;38.39;93788.00;5005803;28;20220;-61
2023/03/15 03:05:15;;;;;;;12.13;6.30;;;;;;;7.69;37.22;93784.69;5007953;28;20209;-63
2023/03/15 03:07:43;;;;;;;10.43;6.80;;;;;;;7.79;37.71;93772.28;5014277;28;20202;-62
2023/03/15 03:10:10;;;;;;;7.50;6.30;;;;;;;7.87;37.19;93774.88;5009359;28;20222;-63
2023/03/15 03:12:35;;;;;;;8.80;6.77;;;;;;;8.05;36.86;93766.03;5002398;28;20257;-62
2023/03/15 03:15:02;;;;;;;7.40;5.13;;;;;;;7.94;35.90;93767.19;5007787;28;20250;-62
2023/03/15 03:17:28;;;;;;;8.10;5.80;;;;;;;7.94;36.14;93760.16;5002528;28;20227;-62
2023/03/15 03:19:53;;;;;;;8.37;5.60;;;;;;;8.04;35.43;93769.63;5011177;28;20229;-61
2023/03/15 03:22:18;;;;;;;8.67;5.33;;;;;;;8.09;35.18;93767.31;5006808;28;20298;-62
2023/03/15 03:24:44;;;;;;;7.70;5.43;;;;;;;8.21;35.10;93766.00;5005032;28;20234;-62
2023/03/15 03:27:16;;;;;;;8.50;4.80;;;;;;;8.16;34.65;93760.44;5010556;28;20257;-62
2023/03/15 03:29:42;;;;;;;6.73;4.83;;;;;;;7.95;35.42;93755.72;5006682;28;20250;-64
2023/03/15 03:32:08;;;;;;;5.93;4.80;;;;;;;8.00;35.25;93758.66;5008195;28;20281;-63
2023/03/15 03:34:34;;;;;;;6.30;4.60;;;;;;;8.05;34.79;93750.31;5006339;28;20318;-62
2023/03/15 03:37:00;;;;;;;5.50;4.33;;;;;;;8.05;35.31;93750.31;4996818;28;20250;-63
2023/03/15 03:39:25;;;;;;;6.00;4.80;;;;;;;8.01;34.96;93739.34;5009783;28;20238;-63
2023/03/15 03:41:51;;;;;;;7.00;5.73;;;;;;;7.66;36.21;93741.38;5002988;28;20289;-63
2023/03/15 03:44:17;;;;;;;6.83;5.53;;;;;;;7.66;36.88;93737.94;5008918;28;20246;-63
2023/03/15 03:46:42;;;;;;;7.13;5.60;;;;;;;7.82;36.77;93737.91;5009386;28;20210;-63
2023/03/15 03:49:08;;;;;;;7.07;5.47;;;;;;;7.99;35.70;93743.94;5000752;28;20286;-62
2023/03/15 03:51:33;;;;;;;7.57;5.73;;;;;;;8.15;35.25;93736.06;5007856;28;20325;-62
2023/03/15 03:54:00;;;;;;;9.20;5.87;;;;;;;8.11;35.89;93747.03;5003771;28;20249;-63
2023/03/15 03:56:26;;;;;;;9.10;6.30;;;;;;;8.03;35.92;93732.16;4998772;28;20223;-63
2023/03/15 03:58:52;;;;;;;12.00;6.03;;;;;;;8.05;35.76;93737.22;5001025;28;20231;-65
2023/03/15 04:01:17;;;;;;;8.00;5.80;;;;;;;8.07;35.55;93727.38;5000189;28;20249;-63
2023/03/15 04:03:43;;;;;;;8.33;5.97;;;;;;;8.07;35.66;93735.25;5019823;28;20709;-63
2023/03/15 04:06:09;;;;;;;7.97;6.20;;;;;;;8.08;35.71;93724.63;5008681;28;20617;-63
2023/03/15 04:08:34;;;;;;;8.77;6.20;;;;;;;8.18;35.55;93717.38;5005809;28;20215;-66
2023/03/15 04:11:02;;;;;;;11.33;6.30;;;;;;;8.25;35.32;93714.09;5004261;28;20198;-63
2023/03/15 04:13:29;;;;;;;9.77;6.57;;;;;;;8.17;35.05;93720.16;5003240;28;20216;-63
2023/03/15 04:15:56;;;;;;;8.23;6.97;;;;;;;8.29;34.78;93716.19;5003662;28;20546;-64
2023/03/15 04:18:21;;;;;;;11.10;6.30;;;;;;;8.20;35.00;93713.78;4998491;28;20231;-64
2023/03/15 04:20:47;;;;;;;9.73;6.83;;;;;;;8.12;35.29;93710.19;4997952;28;20219;-63
2023/03/15 04:23:14;;;;;;;9.67;7.33;;;;;;;8.09;35.34;93714.94;4998877;28;20195;-64
2023/03/15 04:25:39;;;;;;;11.70;7.07;;;;;;;8.16;35.57;93714.13;4997609;28;20187;-61
2023/03/15 04:28:09;;;;;;;10.00;7.30;;;;;;;7.98;35.87;93710.91;4999467;28;20229;-60
2023/03/15 04:30:35;;;;;;;10.77;6.60;;;;;;;7.95;35.82;93713.84;5005364;28;20241;-60
2023/03/15 04:33:02;;;;;;;8.70;7.27;;;;;;;7.75;36.55;93716.00;5000922;28;20263;-63
2023/03/15 04:35:33;;;;;;;10.97;6.83;;;;;;;7.88;36.35;93708.44;4995413;28;20223;-65
2023/03/15 04:37:59;;;;;;;11.77;7.10;;;;;;;7.76;36.60;93703.75;4997626;28;20197;-64
2023/03/15 04:40:25;;;;;;;8.30;6.80;;;;;;;7.55;36.74;93706.91;5007332;28;20199;-65
2023/03/15 04:42:54;;;;;;;8.37;6.70;;;;;;;6.98;37.92;93702.50;5001087;28;20227;-63
2023/03/15 04:45:20;;;;;;;10.27;6.77;;;;;;;6.86;38.42;93712.44;5006929;28;20215;-63
2023/03/15 04:47:47;;;;;;;9.63;6.90;;;;;;;6.84;38.54;93709.16;5005323;28;20268;-64
2023/03/15 04:50:13;;;;;;;10.83;6.97;;;;;;;7.01;38.64;93713.44;5004407;28;20306;-64
2023/03/15 04:52:38;;;;;;;7.27;6.43;;;;;;;7.20;38.01;93719.34;4998283;28;20646;-63
2023/03/15 04:55:04;;;;;;;10.77;6.40;;;;;;;7.22;38.12;93715.56;4999167;28;20234;-62
2023/03/15 04:57:30;;;;;;;7.93;6.47;;;;;;;7.33;37.88;93708.41;5001487;28;20218;-63
2023/03/15 04:59:56;;;;;;;8.63;5.27;;;;;;;7.50;38.00;93716.03;5000504;28;20296;-61
2023/03/15 05:02:22;;;;;;;8.60;6.40;;;;;;;7.50;38.10;93710.00;5005047;28;20248;-66
2023/03/15 05:04:47;;;;;;;10.47;7.00;;;;;;;7.60;37.41;93705.41;4999477;28;20207;-63
2023/03/15 05:07:13;;;;;;;11.23;6.60;;;;;;;7.69;37.44;93719.28;5002522;28;20318;-64
2023/03/15 05:09:38;;;;;;;10.03;6.50;;;;;;;7.73;37.16;93724.03;5004763;28;20226;-63
2023/03/15 05:12:04;;;;;;;10.23;6.60;;;;;;;7.66;37.55;93730.09;5002278;28;20230;-64
2023/03/15 05:14:30;;;;;;;8.27;5.87;;;;;;;7.78;37.24;93710.47;4996750;28;20231;-64
2023/03/15 05:16:58;;;;;;;11.37;6.63;;;;;;;7.93;37.00;93718.44;5004233;28;20243;-62
2023/03/15 05:19:24;;;;;;;10.03;6.87;;;;;;;7.83;37.31;93713.41;5000465;28;20205;-65
2023/03/15 05:21:50;;;;;;;7.90;6.73;;;;;;;7.97;37.40;93711.88;4999974;28;20246;-64
2023/03/15 05:24:15;;;;;;;9.20;6.90;;;;;;;7.93;37.76;93706.16;5006985;28;20227;-63
2023/03/15 05:26:45;;;;;;;9.83;6.07;;;;;;;7.98;37.34;93710.09;5001432;28;20227;-63
2023/03/15 05:29:11;;;;;;;11.83;6.93;;;;;;;8.12;37.40;93707.56;4999149;28;20223;-61
2023/03/15 05:31:37;;;;;;;8.37;5.83;;;;;;;8.14;37.63;93710.84;5006391;28;20278;-60
2023/03/15 05:34:03;;;;;;;11.87;5.93;;;;;;;8.25;37.17;93709.66;5006480;28;20306;-64
2023/03/15 05:36:33;;;;;;;9.50;6.30;;;;;;;8.26;37.60;93706.06;5005169;28;20262;-64
2023/03/15 05:38:58;;;;;;;10.53;6.63;;;;;;;8.18;37.66;93701.69;5001453;28;20257;-59
2023/03/15 05:41:24;;;;;;;9.37;6.87;;;;;;;8.04;38.04;93704.97;5002084;28;20235;-61
2023/03/15 05:43:50;;;;;;;8.93;6.43;;;;;;;8.18;37.82;93706.09;5002240;28;20199;-60
2023/03/15 05:46:16;;;;;;;8.80;6.53;;;;;;;8.18;38.11;93713.97;5004441;28;20265;-65
2023/03/15 05:48:42;;;;;;;12.33;6.80;;;;;;;8.21;38.02;93703.13;5006848;28;20227;-65
2023/03/15 05:51:07;;;;;;;11.10;7.00;;;;;;;8.19;38.22;93699.88;5006871;28;21209;-64
2023/03/15 05:53:33;;;;;;;8.63;5.80;;;;;;;8.17;38.23;93696.59;4998894;28;20321;-64
2023/03/15 05:55:58;;;;;;;8.63;5.83;;;;;;;8.20;37.90;93700.69;5000300;28;20248;-62
2023/03/15 05:58:24;;;;;;;10.10;5.90;;;;;;;8.23;37.74;93706.38;4999183;28;20309;-61
2023/03/15 06:00:50;;;;;;;11.90;6.40;;;;;;;8.34;37.97;93707.81;5001376;28;20282;-62
2023/03/15 06:03:15;;;;;;;11.60;5.63;;;;;;;8.35;37.42;93705.03;5005343;28;20218;-62
2023/03/15 06:05:41;;;;;;;12.00;5.33;;;;;;;8.36;36.81;93705.84;5004826;28;20227;-62
2023/03/15 06:08:07;;;;;;;11.20;6.73;;;;;;;8.46;36.52;93708.31;5000981;28;20217;-63
2023/03/15 06:10:32;;;;;;;9.37;5.43;;;;;;;8.49;35.82;93702.72;5006620;28;20190;-64
2023/03/15 06:12:58;;;;;;;12.00;5.97;;;;;;;8.67;36.15;93702.47;5006933;28;20231;-65
2023/03/15 06:15:24;;;;;;;9.70;6.03;;;;;;;8.61;36.06;93694.31;5006285;28;20223;-64
2023/03/15 06:17:50;;;;;;;9.27;6.30;;;;;;;8.44;36.46;93697.97;4996581;28;20311;-63
2023/03/15 06:20:16;;;;;;;9.07;6.80;;;;;;;8.01;37.33;93697.47;4998203;28;20227;-63
2023/03/15 06:22:41;;;;;;;9.13;5.70;;;;;;;8.17;37.39;93707.88;5007299;28;20366;-65
2023/03/15 06:25:08;;;;;;;9.23;6.13;;;;;;;8.46;36.71;93708.31;5005820;28;20225;-64
2023/03/15 06:27:34;;;;;;;10.10;6.50;;;;;;;8.66;36.38;93701.66;4997190;28;20249;-64
2023/03/15 06:29:59;;;;;;;13.47;7.63;;;;;;;8.86;36.01;93694.16;4997714;28;20291;-63
2023/03/15 06:32:24;;;;;;;8.83;6.30;;;;;;;8.88;36.01;93694.00;5004441;28;20207;-63
2023/03/15 06:34:50;;;;;;;20.03;6.37;;;;;;;8.63;36.71;93680.22;5002565;28;20226;-65
2023/03/15 06:37:16;;;;;;;9.63;6.77;;;;;;;8.85;36.30;93684.69;4999790;28;20276;-63
2023/03/15 06:39:43;;;;;;;9.93;6.03;;;;;;;9.04;36.08;93697.31;5003316;28;20250;-63
2023/03/15 06:42:12;;;;;;;7.50;5.47;;;;;;;9.14;35.59;93697.09;5002292;28;20261;-63
2023/03/15 06:44:42;;;;;;;10.20;6.50;;;;;;;9.33;34.95;93695.81;5007509;28;20219;-64
2023/03/15 06:47:09;;;;;;;10.33;6.07;;;;;;;9.53;34.57;93687.44;4999595;28;20200;-66
2023/03/15 06:49:34;;;;;;;12.17;6.17;;;;;;;10.02;34.07;93679.88;5008059;28;20261;-66
2023/03/15 06:52:00;;;;;;;9.60;6.30;;;;;;;9.42;35.21;93681.63;5003502;28;20243;-65
2023/03/15 06:54:25;;;;;;;10.00;5.83;;;;;;;9.56;35.14;93685.25;4999394;28;20281;-60
2023/03/15 06:56:51;;;;;;;12.27;6.33;;;;;;;9.51;35.36;93684.97;4996859;28;20234;-60
2023/03/15 06:59:17;;;;;;;11.70;5.57;;;;;;;9.35;35.39;93674.63;5000920;28;20227;-61
2023/03/15 07:01:42;;;;;;;12.02;7.15;;;;;;;9.58;34.59;93677.22;5007469;28;20281;-61
2023/03/15 07:04:08;;;;;;;8.70;6.20;;;;;;;8.89;36.08;93675.47;5001379;28;20224;-60
2023/03/15 07:06:34;;;;;;;11.70;5.82;;;;;;;8.90;36.47;93681.50;5000573;28;20262;-62
2023/03/15 07:09:00;;;;;;;9.20;5.93;;;;;;;9.15;36.13;93674.31;5001683;28;20307;-63
2023/03/15 07:11:25;;;;;;;10.87;6.23;;;;;;;9.39;35.58;93671.47;5003897;28;20313;-63
2023/03/15 07:13:51;;;;;;;8.23;6.10;;;;;;;9.63;35.26;93670.44;5018645;28;20282;-64
2023/03/15 07:16:16;;;;;;;10.00;5.87;;;;;;;9.97;34.81;93666.50;5007297;28;20214;-63
2023/03/15 07:18:41;;;;;;;10.23;6.15;;;;;;;9.64;35.46;93664.19;5006809;28;20223;-64
2023/03/15 07:21:07;;;;;;;7.43;5.40;;;;;;;9.78;35.03;93664.38;5003290;28;20307;-63
2023/03/15 07:23:33;;;;;;;9.53;5.80;;;;;;;9.99;34.78;93672.34;4994853;28;20218;-63
2023/03/15 07:25:59;;;;;;;6.28;4.75;;;;;;;10.06;34.08;93675.91;5002253;28;20240;-62
2023/03/15 07:28:26;;;;;;;11.53;5.03;;;;;;;10.23;33.87;93673.06;5007997;28;20240;-66
2023/03/15 07:30:57;;;;;;;7.45;4.43;;;;;;;10.37;33.83;93673.09;5002471;28;20216;-66
2023/03/15 07:33:23;;;;;;;11.07;5.30;;;;;;;10.45;33.71;93673.97;5002210;28;20219;-67
2023/03/15 07:35:52;;;;;;;8.57;5.07;;;;;;;10.46;33.03;93673.81;4999747;28;20258;-67
2023/03/15 07:38:19;;;;;;;8.33;5.00;;;;;;;10.43;33.57;93671.56;5008963;28;20288;-64
2023/03/15 07:40:45;;;;;;;5.68;4.45;;;;;;;10.42;33.60;93683.03;5001113;28;20622;-70
2023/03/15 07:43:10;;;;;;;10.20;5.15;;;;;;;10.46;33.67;93684.31;5004336;28;20302;-68
2023/03/15 07:45:36;;;;;;;8.37;5.80;;;;;;;11.24;32.16;93672.19;5004641;28;20282;-68
2023/03/15 07:48:01;;;;;;;9.40;4.72;;;;;;;10.55;32.95;93667.44;5004114;28;20227;-69
2023/03/15 07:50:27;;;;;;;9.77;4.70;;;;;;;10.49;33.28;93676.06;5000310;28;20226;-68
2023/03/15 07:52:52;;;;;;;9.80;5.00;;;;;;;10.52;33.35;93667.81;5007372;28;20203;-67
2023/03/15 07:55:18;;;;;;;9.20;4.50;;;;;;;10.53;33.12;93666.00;5006301;28;20269;-68
2023/03/15 07:57:43;;;;;;;7.77;4.70;;;;;;;10.54;33.34;93663.19;5005495;28;20305;-68
2023/03/15 08:00:11;;;;;;;5.32;4.72;;;;;;;10.57;33.63;93675.16;5003024;28;20564;-69
2023/03/15 08:02:36;;;;;;;6.05;3.80;;;;;;;10.45;33.95;93669.56;5005921;28;20219;-70
2023/03/15 08:05:03;;;;;;;7.13;4.20;;;;;;;10.46;34.17;93659.88;5006533;28;20194;-67
2023/03/15 08:07:29;;;;;;;5.67;4.03;;;;;;;10.34;34.00;93662.97;5005221;28;20214;-67
2023/03/15 08:09:56;;;;;;;7.85;3.83;;;;;;;10.58;33.68;93664.47;5005418;28;20219;-62
2023/03/15 08:12:23;;;;;;;4.40;3.13;;;;;;;11.07;32.38;93649.78;4998424;28;20229;-69
2023/03/15 08:14:48;;;;;;;5.00;3.10;;;;;;;10.88;31.98;93650.41;5003049;28;20233;-69
2023/03/15 08:17:15;;;;;;;8.17;3.57;;;;;;;10.90;32.17;93643.13;5006559;28;20195;-66
2023/03/15 08:19:40;;;;;;;5.40;3.45;;;;;;;10.60;33.10;93636.16;4999611;28;20278;-63
2023/03/15 08:22:06;;;;;;;4.88;3.35;;;;;;;10.84;32.88;93639.44;5000921;28;20219;-64
2023/03/15 08:24:31;;;;;;;6.53;3.53;;;;;;;11.04;32.98;93627.31;5006989;28;20239;-65
2023/03/15 08:26:57;;;;;;;6.73;4.00;;;;;;;11.19;32.45;93631.69;4999346;28;20219;-65
2023/03/15 08:29:22;;;;;;;5.30;3.70;;;;;;;11.45;31.97;93637.16;5004487;28;20218;-66
2023/03/15 08:31:48;;;;;;;9.43;4.30;;;;;;;11.17;32.85;93631.03;5005236;28;20187;-66
2023/03/15 08:34:14;;;;;;;7.67;3.90;;;;;;;11.09;32.71;93624.09;5004180;28;20223;-66
2023/03/15 08:36:40;;;;;;;8.17;3.70;;;;;;;11.30;32.43;93632.97;5005570;28;20229;-65
2023/03/15 08:39:07;;;;;;;5.50;3.30;;;;;;;10.95;32.98;93636.31;5008790;28;20290;-66
2023/03/15 08:41:33;;;;;;;6.03;3.78;;;;;;;10.90;33.06;93635.25;5004165;28;20245;-66
2023/03/15 08:43:59;;;;;;;5.03;3.70;;;;;;;11.05;32.85;93633.38;5008531;28;20252;-66
2023/03/15 08:46:25;;;;;;;7.63;3.95;;;;;;;11.17;32.47;93625.78;5003567;28;20180;-66
2023/03/15 08:48:51;;;;;;;5.03;3.57;;;;;;;11.42;32.61;93615.69;5003951;28;20249;-65
2023/03/15 08:51:18;;;;;;;8.38;3.78;;;;;;;11.45;32.40;93631.91;5002883;28;20219;-67
2023/03/15 08:53:43;;;;;;;9.00;4.10;;;;;;;11.63;32.21;93639.31;5006112;28;20373;-68
2023/03/15 08:56:09;;;;;;;6.75;4.28;;;;;;;11.65;31.92;93636.47;5006615;28;20273;-70
2023/03/15 08:58:34;;;;;;;9.75;3.95;;;;;;;11.55;33.26;93630.75;5011284;28;20238;-68
2023/03/15 09:01:00;;;;;;;5.72;4.25;;;;;;;11.64;32.29;93635.66;5005804;28;20753;-67
2023/03/15 09:03:26;;;;;;;8.07;4.45;;;;;;;11.81;31.96;93633.56;5001831;28;20221;-64
2023/03/15 09:05:59;;;;;;;10.77;4.35;;;;;;;11.72;32.09;93634.72;5001366;28;20305;-65
2023/03/15 09:08:25;;;;;;;5.97;3.95;;;;;;;11.91;32.21;93641.16;5003008;28;20214;-68
2023/03/15 09:10:55;;;;;;;9.85;4.10;;;;;;;11.95;32.25;93637.13;5008130;28;20263;-66
2023/03/15 09:13:21;;;;;;;7.82;4.40;;;;;;;12.00;31.88;93642.63;5001840;28;20227;-68
2023/03/15 09:15:51;;;;;;;6.72;4.10;;;;;;;11.62;32.36;93636.88;5009077;28;20234;-68
2023/03/15 09:18:17;;;;;;;7.22;4.20;;;;;;;11.68;32.02;93634.31;5001386;28;20230;-66
2023/03/15 09:20:44;;;;;;;4.80;3.95;;;;;;;11.74;32.38;93637.16;5005495;28;20222;-69
2023/03/15 09:23:10;;;;;;;8.30;3.53;;;;;;;11.57;32.78;93644.53;5005770;28;20199;-67
2023/03/15 09:25:38;;;;;;;8.10;3.97;;;;;;;11.70;32.52;93632.25;5007691;28;21051;-68
2023/03/15 09:28:05;;;;;;;6.50;3.80;;;;;;;11.93;32.20;93640.97;5007467;28;20277;-62
2023/03/15 09:30:30;;;;;;;6.65;3.63;;;;;;;12.10;31.92;93650.16;5007870;28;20230;-68
2023/03/15 09:32:56;;;;;;;5.15;3.58;;;;;;;12.24;31.55;93641.34;4999315;28;20208;-63
2023/03/15 09:35:21;;;;;;;7.35;3.85;;;;;;;12.34;31.21;93643.59;5008704;28;20215;-66
2023/03/15 09:37:48;;;;;;;4.60;3.35;;;;;;;12.39;31.22;93629.84;5006882;28;20282;-64
2023/03/15 09:40:19;;;;;;;7.97;3.10;;;;;;;12.25;31.49;93632.41;5003817;28;20233;-63
2023/03/15 09:43:07;;;;;;;5.53;3.22;;;;;;;12.53;31.09;93615.69;5002420;28;20222;-65
2023/03/15 09:45:57;;;;;;;6.30;3.40;;;;;;;12.67;30.80;93612.09;5003229;28;20226;-66
2023/03/15 09:48:38;;;;;;;7.35;3.85;;;;;;;13.00;30.31;93606.06;5004047;28;20276;-62
2023/03/15 09:51:47;;;;;;;5.07;3.00;;;;;;;12.27;31.94;93614.59;5005111;28;20276;-63
2023/03/15 09:54:19;;;;;;;6.10;3.65;;;;;;;12.27;31.91;93604.06;4909622;29;20316;-65
2023/03/15 09:56:55;;;;;;;7.70;3.85;;;;;;;12.27;31.67;93593.50;4930121;28;20274;-65
2023/03/15 09:59:27;;;;;;;6.85;3.70;;;;;;;12.38;31.60;93593.97;4931980;28;20232;-65
2023/03/15 10:01:55;;;;;;;6.93;3.65;;;;;;;12.49;31.37;93602.09;4931551;29;20209;-65
2023/03/15 10:04:28;;;;;;;8.32;4.20;;;;;;;12.60;31.54;93603.34;4934901;29;20312;-65
2023/03/15 10:06:59;;;;;;;6.22;4.22;;;;;;;12.32;31.71;93606.91;4928499;28;20229;-65
2023/03/15 10:09:31;;;;;;;7.93;4.55;;;;;;;12.31;32.21;93605.28;4932382;29;20734;-65
2023/03/15 10:12:04;;;;;;;9.63;4.68;;;;;;;12.21;32.23;93611.91;4931700;28;20312;-65
2023/03/15 10:15:01;;;;;;;7.53;4.80;;;;;;;12.15;32.03;93610.88;4932874;29;20260;-65
2023/03/15 10:18:06;;;;;;;7.57;4.30;;;;;;;12.28;32.30;93605.66;4933398;28;20223;-64
2023/03/15 10:20:38;;;;;;;7.82;4.05;;;;;;;12.51;31.59;93601.88;4911584;29;20254;-64
2023/03/15 10:23:17;;;;;;;8.48;4.43;;;;;;;12.65;31.86;93606.22;4911911;29;21337;-64
2023/03/15 10:25:44;;;;;;;8.85;4.47;;;;;;;12.51;31.62;93612.44;4894310;29;20230;-65
2023/03/15 10:28:15;;;;;;;9.55;4.03;;;;;;;12.53;31.45;93605.94;4894320;29;20226;-64
2023/03/15 10:30:47;;;;;;;6.80;4.60;;;;;;;12.41;31.42;93604.09;4932179;28;20244;-64
2023/03/15 10:33:26;;;;;;;8.20;4.82;;;;;;;12.22;32.51;93582.75;4955131;28;20235;-65
2023/03/15 10:35:52;;;;;;;7.00;5.47;;;;;;;11.81;32.48;93590.59;4949479;28;20259;-66
2023/03/15 10:38:23;;;;;;;8.57;4.45;;;;;;;11.85;32.71;93595.31;4948706;28;20369;-65
2023/03/15 10:40:58;;;;;;;14.65;4.47;;;;;;;12.09;32.09;93601.13;4950363;28;20662;-61
2023/03/15 10:43:31;;;;;;;11.35;4.35;;;;;;;12.12;32.20;93606.00;4953971;28;20299;-66
2023/03/15 10:46:03;;;;;;;6.55;4.18;;;;;;;12.13;32.28;93595.28;4950140;28;20233;-65
2023/03/15 10:48:37;;;;;;;6.00;4.03;;;;;;;12.30;32.37;93598.38;4949127;28;20267;-64
2023/03/15 10:51:06;;;;;;;6.18;3.83;;;;;;;12.46;31.40;93584.03;4930560;28;20228;-63
2023/03/15 10:53:32;;;;;;;7.18;3.67;;;;;;;12.55;31.05;93592.59;4950770;28;20379;-63
2023/03/15 10:56:01;;;;;;;4.93;3.63;;;;;;;12.53;31.27;93597.22;4950732;28;20193;-64
2023/03/15 10:58:29;;;;;;;7.70;3.90;;;;;;;12.65;31.09;93598.28;5018594;28;20233;-64
2023/03/15 11:01:06;;;;;;;5.13;3.40;;;;;;;12.51;31.52;93596.59;5002492;28;20226;-64
2023/03/15 11:03:32;;;;;;;5.82;3.28;;;;;;;12.53;31.14;93592.75;5005967;28;20215;-64
2023/03/15 11:05:59;;;;;;;4.80;3.33;;;;;;;12.66;30.88;93591.19;5007965;28;20650;-64
2023/03/15 11:08:37;;;;;;;6.90;3.53;;;;;;;12.58;31.28;93589.53;5009521;28;20218;-67
2023/03/15 11:11:03;;;;;;;8.52;3.78;;;;;;;12.64;31.76;93582.66;4999928;28;20200;-66
2023/03/15 11:13:32;;;;;;;6.68;3.72;;;;;;;13.02;30.57;93577.66;4999775;28;20214;-69
2023/03/15 11:16:03;;;;;;;5.85;3.35;;;;;;;12.54;31.56;93581.22;5007354;28;20274;-67
2023/03/15 11:18:53;;;;;;;10.15;5.43;;;;;;;12.79;31.06;93573.56;5000968;28;20249;-67
2023/03/15 11:21:24;;;;;;;8.70;4.20;;;;;;;12.61;31.20;93583.88;5003916;28;20353;-67
2023/03/15 11:23:50;;;;;;;8.90;3.38;;;;;;;12.60;31.83;93582.25;5006318;28;20207;-67
2023/03/15 11:26:20;;;;;;;3.67;3.10;;;;;;;12.61;31.31;93573.31;5010511;28;20304;-67
2023/03/15 11:28:51;;;;;;;10.32;3.45;;;;;;;12.63;31.39;93583.69;5003270;28;20184;-66
2023/03/15 11:31:20;;;;;;;5.97;3.58;;;;;;;12.81;30.81;93591.84;5005868;28;20223;-66
2023/03/15 11:34:10;;;;;;;4.22;3.42;;;;;;;13.02;30.54;93586.38;5000456;28;20278;-66
2023/03/15 11:36:40;;;;;;;5.53;3.47;;;;;;;12.53;30.77;93576.13;5004781;28;20246;-66